createdAt,value
2022-12-12T00:01:41.559Z,-0.78
2022-12-12T00:04:09.093Z,-0.78
2022-12-12T00:06:36.538Z,-0.75
2022-12-12T00:09:05.466Z,-0.78
2022-12-12T00:11:32.969Z,-0.71
2022-12-12T00:14:00.476Z,-0.71
2022-12-12T00:16:28.269Z,-0.72
2022-12-12T00:18:55.851Z,-0.74
2022-12-12T00:21:28.194Z,-0.70
2022-12-12T00:23:57.191Z,-0.67
2022-12-12T00:26:31.387Z,-0.80
2022-12-12T00:29:00.868Z,-0.75
2022-12-12T00:31:29.541Z,-0.77
2022-12-12T00:33:57.388Z,-0.86
2022-12-12T00:36:29.330Z,-0.84
2022-12-12T00:38:58.393Z,-0.98
2022-12-12T00:41:26.414Z,-0.96
2022-12-12T00:43:54.060Z,-0.93
2022-12-12T00:46:24.989Z,-0.88
2022-12-12T00:48:58.355Z,-0.82
2022-12-12T00:51:28.228Z,-0.84
2022-12-12T00:53:58.152Z,-0.84
2022-12-12T00:56:27.602Z,-0.89
2022-12-12T00:58:55.226Z,-0.82
2022-12-12T01:01:27.761Z,-0.95
2022-12-12T01:03:55.596Z,-0.97
2022-12-12T01:06:24.117Z,-0.94
2022-12-12T01:08:53.165Z,-0.92
2022-12-12T01:11:22.187Z,-0.96
2022-12-12T01:13:53.487Z,-1.00
2022-12-12T01:16:22.221Z,-0.98
2022-12-12T01:18:50.816Z,-1.07
2022-12-12T01:21:20.405Z,-1.12
2022-12-12T01:23:48.155Z,-1.05
2022-12-12T01:26:19.642Z,-1.16
2022-12-12T01:28:48.005Z,-1.14
2022-12-12T01:31:16.409Z,-1.19
2022-12-12T01:33:46.317Z,-1.28
2022-12-12T01:36:20.986Z,-1.26
2022-12-12T01:38:51.700Z,-1.34
2022-12-12T01:41:19.576Z,-1.24
2022-12-12T01:43:47.738Z,-1.31
2022-12-12T01:46:43.276Z,-1.28
2022-12-12T01:49:23.506Z,-1.18
2022-12-12T01:51:58.996Z,-1.25
2022-12-12T01:54:39.538Z,-1.31
2022-12-12T01:57:13.467Z,-1.37
2022-12-12T01:59:42.318Z,-1.26
2022-12-12T02:02:10.889Z,-1.21
2022-12-12T02:04:39.772Z,-1.28
2022-12-12T02:07:07.080Z,-1.31
2022-12-12T02:09:37.023Z,-1.20
2022-12-12T02:12:04.912Z,-1.37
2022-12-12T02:14:37.651Z,-1.36
2022-12-12T02:17:34.718Z,-1.33
2022-12-12T02:20:26.681Z,-1.38
2022-12-12T02:23:17.887Z,-1.38
2022-12-12T02:26:22.188Z,-1.46
2022-12-12T02:28:58.228Z,-1.47
2022-12-12T02:31:59.410Z,-1.41
2022-12-12T02:34:38.413Z,-1.51
2022-12-12T02:37:29.158Z,-1.42
2022-12-12T02:40:04.034Z,-1.50
2022-12-12T02:42:53.366Z,-1.47
2022-12-12T02:45:37.854Z,-1.48
2022-12-12T02:48:37.106Z,-1.42
2022-12-12T02:51:09.984Z,-1.48
2022-12-12T02:53:37.802Z,-1.52
2022-12-12T02:56:45.151Z,-1.57
2022-12-12T02:59:34.529Z,-1.57
2022-12-12T03:02:16.535Z,-1.54
2022-12-12T03:05:26.987Z,-1.58
2022-12-12T03:08:33.637Z,-1.50
2022-12-12T03:11:09.288Z,-1.62
2022-12-12T03:13:59.785Z,-1.62
2022-12-12T03:17:04.602Z,-1.62
2022-12-12T03:20:11.981Z,-1.58
2022-12-12T03:22:48.988Z,-1.59
2022-12-12T03:25:24.095Z,-1.65
2022-12-12T03:28:03.998Z,-1.60
2022-12-12T03:30:40.725Z,-1.55
2022-12-12T03:33:46.691Z,-1.62
2022-12-12T03:36:27.367Z,-1.64
2022-12-12T03:39:06.179Z,-1.51
2022-12-12T03:41:42.435Z,-1.51
2022-12-12T03:44:22.574Z,-1.63
2022-12-12T03:46:57.453Z,-1.71
2022-12-12T03:49:36.046Z,-1.59
2022-12-12T03:52:13.857Z,-1.54
2022-12-12T03:54:53.884Z,-1.51
2022-12-12T03:57:36.595Z,-1.55
2022-12-12T04:00:13.940Z,-1.65
2022-12-12T04:03:15.834Z,-1.52
2022-12-12T04:06:29.648Z,-1.52
2022-12-12T04:09:21.576Z,-1.43
2022-12-12T04:12:38.094Z,-1.37
2022-12-12T04:15:26.568Z,-1.39
2022-12-12T04:18:35.157Z,-1.41
2022-12-12T04:21:57.610Z,-1.44
2022-12-12T04:24:50.256Z,-1.47
2022-12-12T04:27:43.212Z,-1.53
2022-12-12T04:30:14.847Z,-1.50
2022-12-12T04:32:55.092Z,-1.52
2022-12-12T04:35:33.740Z,-1.42
2022-12-12T04:38:09.735Z,-1.46
2022-12-12T04:40:50.679Z,-1.53
2022-12-12T04:43:34.076Z,-1.48
2022-12-12T04:46:26.245Z,-1.49
2022-12-12T04:49:02.939Z,-1.45
2022-12-12T04:51:34.896Z,-1.42
2022-12-12T04:54:22.414Z,-1.50
2022-12-12T04:56:58.792Z,-1.44
2022-12-12T04:59:26.795Z,-1.35
2022-12-12T05:01:59.440Z,-1.29
2022-12-12T05:04:51.663Z,-1.33
2022-12-12T05:07:40.122Z,-1.35
2022-12-12T05:10:16.241Z,-1.27
2022-12-12T05:12:49.859Z,-1.29
2022-12-12T05:15:20.741Z,-1.30
2022-12-12T05:18:05.544Z,-1.29
2022-12-12T05:20:32.887Z,-1.26
2022-12-12T05:23:00.490Z,-1.12
2022-12-12T05:25:27.871Z,-1.21
2022-12-12T05:27:55.556Z,-1.19
2022-12-12T05:30:24.152Z,-1.22
2022-12-12T05:32:52.233Z,-1.17
2022-12-12T05:35:19.610Z,-1.17
2022-12-12T05:37:51.634Z,-1.05
2022-12-12T05:40:21.186Z,-1.11
2022-12-12T05:42:48.701Z,-1.08
2022-12-12T05:45:16.225Z,-1.08
2022-12-12T05:47:43.789Z,-1.07
2022-12-12T05:50:11.307Z,-1.04
2022-12-12T05:52:38.950Z,-1.03
2022-12-12T05:55:06.905Z,-1.08
2022-12-12T05:57:34.444Z,-1.09
2022-12-12T06:00:01.700Z,-0.97
2022-12-12T06:02:29.307Z,-1.06
2022-12-12T06:04:56.564Z,-1.06
2022-12-12T06:07:24.785Z,-0.85
2022-12-12T06:09:52.011Z,-0.96
2022-12-12T06:12:19.534Z,-1.03
2022-12-12T06:14:46.687Z,-1.03
2022-12-12T06:17:14.202Z,-1.03
2022-12-12T06:19:41.538Z,-0.99
2022-12-12T06:22:09.047Z,-1.02
2022-12-12T06:24:36.253Z,-1.11
2022-12-12T06:27:03.884Z,-1.03
2022-12-12T06:29:31.100Z,-1.02
2022-12-12T06:31:58.614Z,-0.99
2022-12-12T06:34:25.932Z,-0.96
2022-12-12T06:36:53.460Z,-0.90
2022-12-12T06:39:20.659Z,-0.97
2022-12-12T06:41:48.321Z,-1.02
2022-12-12T06:44:15.785Z,-0.91
2022-12-12T06:46:43.317Z,-1.00
2022-12-12T06:49:10.591Z,-0.94
2022-12-12T06:51:44.408Z,-0.94
2022-12-12T06:54:17.959Z,-0.86
2022-12-12T06:56:48.467Z,-0.79
2022-12-12T06:59:17.296Z,-0.71
2022-12-12T07:01:45.501Z,-0.71
2022-12-12T07:04:14.822Z,-0.76
2022-12-12T07:06:43.108Z,-0.77
2022-12-12T07:09:10.500Z,-0.70
2022-12-12T07:11:41.612Z,-0.66
2022-12-12T07:14:10.171Z,-0.60
2022-12-12T07:16:38.041Z,-0.76
2022-12-12T07:19:05.665Z,-0.61
2022-12-12T07:21:33.272Z,-0.54
2022-12-12T07:24:00.535Z,-0.52
2022-12-12T07:26:28.130Z,-0.53
2022-12-12T07:28:55.478Z,-0.57
2022-12-12T07:31:26.542Z,-0.49
2022-12-12T07:33:57.108Z,-0.52
2022-12-12T07:36:24.809Z,-0.51
2022-12-12T07:38:52.200Z,-0.40
2022-12-12T07:41:21.004Z,-0.44
2022-12-12T07:43:51.106Z,-0.54
2022-12-12T07:46:24.969Z,-0.43
2022-12-12T07:48:54.242Z,-0.36
2022-12-12T07:51:22.924Z,-0.37
2022-12-12T07:53:50.239Z,-0.45
2022-12-12T07:56:20.430Z,-0.32
2022-12-12T07:58:48.384Z,-0.20
2022-12-12T08:01:24.040Z,-0.33
2022-12-12T08:03:53.479Z,-0.16
2022-12-12T08:06:23.569Z,-0.19
2022-12-12T08:08:53.422Z,-0.04
2022-12-12T08:11:24.198Z,-0.20
2022-12-12T08:13:53.142Z,-0.13
2022-12-12T08:16:24.805Z,0.05
2022-12-12T08:18:57.720Z,-0.05
2022-12-12T08:21:27.236Z,-0.02
2022-12-12T08:24:00.031Z,0.09
2022-12-12T08:26:28.781Z,0.05
2022-12-12T08:28:57.536Z,-0.06
2022-12-12T08:31:26.221Z,0.05
2022-12-12T08:33:53.878Z,-0.06
2022-12-12T08:36:40.834Z,0.15
2022-12-12T08:39:12.678Z,-0.03
2022-12-12T08:41:46.487Z,0.21
2022-12-12T08:44:16.152Z,0.20
2022-12-12T08:46:43.783Z,0.25
2022-12-12T08:49:12.346Z,0.26
2022-12-12T08:51:41.568Z,0.59
2022-12-12T08:54:12.760Z,0.57
2022-12-12T08:56:40.941Z,0.31
2022-12-12T08:59:08.187Z,0.32
2022-12-12T09:01:36.358Z,0.25
2022-12-12T09:04:04.037Z,0.39
2022-12-12T09:06:31.614Z,0.47
2022-12-12T09:08:59.147Z,0.51
2022-12-12T09:11:27.341Z,0.46
2022-12-12T09:13:54.761Z,0.55
2022-12-12T09:16:23.514Z,0.47
2022-12-12T09:18:50.797Z,0.53
2022-12-12T09:21:19.317Z,0.67
2022-12-12T09:23:46.604Z,0.66
2022-12-12T09:26:14.141Z,0.75
2022-12-12T09:28:41.546Z,0.79
2022-12-12T09:31:11.596Z,0.73
2022-12-12T09:33:39.967Z,0.78
2022-12-12T09:36:09.952Z,0.77
2022-12-12T09:38:37.647Z,0.79
2022-12-12T09:41:15.787Z,0.70
2022-12-12T09:44:11.463Z,0.59
2022-12-12T09:46:50.785Z,0.71
2022-12-12T09:49:43.449Z,0.70
2022-12-12T09:52:18.777Z,0.71
2022-12-12T09:54:46.467Z,0.62
2022-12-12T09:57:45.821Z,0.59
2022-12-12T10:00:16.859Z,0.69
2022-12-12T10:03:09.745Z,0.69
2022-12-12T10:09:30.140Z,0.74
2022-12-12T10:12:04.930Z,0.74
2022-12-12T10:14:50.950Z,0.79
2022-12-12T10:17:32.563Z,0.68
2022-12-12T10:20:05.032Z,0.82
2022-12-12T10:22:40.548Z,0.74
2022-12-12T10:25:25.614Z,0.78
2022-12-12T10:28:11.113Z,0.85
2022-12-12T10:31:09.838Z,0.84
2022-12-12T10:33:37.007Z,0.83
2022-12-12T10:36:26.088Z,0.81
2022-12-12T10:39:33.272Z,0.83
2022-12-12T10:42:25.298Z,0.99
2022-12-12T10:45:26.081Z,0.93
2022-12-12T10:47:53.968Z,0.83
2022-12-12T10:50:40.813Z,0.89
2022-12-12T10:53:11.166Z,0.90
2022-12-12T10:55:51.753Z,0.81
2022-12-12T10:58:20.055Z,0.95
2022-12-12T11:00:50.019Z,0.95
2022-12-12T11:03:32.684Z,0.89
2022-12-12T11:06:07.707Z,0.85
2022-12-12T11:08:37.137Z,0.96
2022-12-12T11:11:10.345Z,0.96
2022-12-12T11:13:50.418Z,0.71
2022-12-12T11:16:22.998Z,0.59
2022-12-12T11:19:18.308Z,0.65
2022-12-12T11:21:47.560Z,0.54
2022-12-12T11:24:20.096Z,0.64
2022-12-12T11:27:07.931Z,0.64
2022-12-12T11:29:48.315Z,0.69
2022-12-12T11:32:22.755Z,0.57
2022-12-12T11:35:36.313Z,0.75
2022-12-12T11:38:22.571Z,0.80
2022-12-12T11:41:00.140Z,0.78
2022-12-12T11:43:50.223Z,0.99
2022-12-12T11:46:24.036Z,0.85
2022-12-12T11:48:54.297Z,1.01
2022-12-12T11:51:35.369Z,0.94
2022-12-12T11:54:22.954Z,0.89
2022-12-12T11:57:06.026Z,0.91
2022-12-12T12:00:03.853Z,1.04
2022-12-12T12:03:13.372Z,1.10
2022-12-12T12:06:01.887Z,1.12
2022-12-12T12:09:00.184Z,0.99
2022-12-12T12:11:33.632Z,1.01
2022-12-12T12:14:43.131Z,1.20
2022-12-12T12:17:44.385Z,1.03
2022-12-12T12:20:44.066Z,1.01
2022-12-12T12:23:50.692Z,1.00
2022-12-12T12:26:43.051Z,0.98
2022-12-12T12:29:25.316Z,0.98
2022-12-12T12:32:16.967Z,1.03
2022-12-12T12:35:26.444Z,1.06
2022-12-12T12:37:59.675Z,1.21
2022-12-12T12:40:44.850Z,1.27
2022-12-12T12:43:34.384Z,1.21
2022-12-12T12:46:46.489Z,1.04
2022-12-12T12:49:35.076Z,1.08
2022-12-12T12:52:36.752Z,1.19
2022-12-12T12:55:24.476Z,1.18
2022-12-12T12:57:53.071Z,0.98
2022-12-12T13:00:26.197Z,1.03
2022-12-12T13:03:18.636Z,1.14
2022-12-12T13:05:55.006Z,0.99
2022-12-12T13:08:36.385Z,0.79
2022-12-12T13:11:14.801Z,0.88
2022-12-12T13:13:48.977Z,0.92
2022-12-12T13:16:32.910Z,0.84
2022-12-12T13:19:16.551Z,0.85
2022-12-12T13:21:56.825Z,0.87
2022-12-12T13:24:42.649Z,0.75
2022-12-12T13:27:27.170Z,0.65
2022-12-12T13:30:07.137Z,0.76
2022-12-12T13:32:52.911Z,0.73
2022-12-12T13:35:31.918Z,0.69
2022-12-12T13:38:00.895Z,0.68
2022-12-12T13:40:41.557Z,0.56
2022-12-12T13:43:41.767Z,0.62
2022-12-12T13:46:24.781Z,0.47
2022-12-12T13:49:07.654Z,0.55
2022-12-12T13:51:43.494Z,0.70
2022-12-12T13:54:14.498Z,0.65
2022-12-12T13:56:57.205Z,0.64
2022-12-12T13:59:27.517Z,0.58
2022-12-12T14:02:55.329Z,0.56
2022-12-12T14:05:42.562Z,0.51
2022-12-12T14:08:13.768Z,0.52
2022-12-12T14:10:50.347Z,0.53
2022-12-12T14:13:26.175Z,0.52
2022-12-12T14:16:28.242Z,0.42
2022-12-12T14:19:18.155Z,0.40
2022-12-12T14:21:48.502Z,0.44
2022-12-12T14:24:33.901Z,0.56
2022-12-12T14:27:04.654Z,0.59
2022-12-12T14:29:41.681Z,0.64
2022-12-12T14:32:12.048Z,0.62
2022-12-12T14:35:06.877Z,0.54
2022-12-12T14:37:59.139Z,0.38
2022-12-12T14:40:40.360Z,0.36
2022-12-12T14:43:21.994Z,0.38
2022-12-12T14:45:49.873Z,0.40
2022-12-12T14:48:46.659Z,0.42
2022-12-12T14:51:29.513Z,0.39
2022-12-12T14:54:00.447Z,0.45
2022-12-12T14:56:40.033Z,0.49
2022-12-12T14:59:27.502Z,0.34
2022-12-12T15:02:33.592Z,0.47
2022-12-12T15:05:07.608Z,0.37
2022-12-12T15:07:39.001Z,0.37
2022-12-12T15:10:30.748Z,0.35
2022-12-12T15:12:58.039Z,0.35
2022-12-12T15:15:32.055Z,0.47
2022-12-12T15:18:01.690Z,0.61
2022-12-12T15:20:32.612Z,0.37
2022-12-12T15:23:07.209Z,0.39
2022-12-12T15:25:52.773Z,0.23
2022-12-12T15:28:24.912Z,0.39
2022-12-12T15:30:55.231Z,0.26
2022-12-12T15:33:27.992Z,0.33
2022-12-12T15:36:05.436Z,0.40
2022-12-12T15:38:34.613Z,0.26
2022-12-12T15:41:12.768Z,0.43
2022-12-12T15:43:43.185Z,0.48
2022-12-12T15:46:15.723Z,0.49
2022-12-12T15:48:49.630Z,0.42
2022-12-12T15:51:24.616Z,0.44
2022-12-12T15:53:55.496Z,0.45
2022-12-12T15:56:27.800Z,0.45
2022-12-12T15:59:06.920Z,0.43
2022-12-12T16:01:34.565Z,0.44
2022-12-12T16:04:22.716Z,0.33
2022-12-12T16:06:50.464Z,0.43
2022-12-12T16:09:26.384Z,0.37
2022-12-12T16:11:59.230Z,0.44
2022-12-12T16:14:42.113Z,0.35
2022-12-12T16:17:24.510Z,0.37
2022-12-12T16:20:13.971Z,0.44
2022-12-12T16:22:49.177Z,0.47
2022-12-12T16:25:25.848Z,0.49
2022-12-12T16:28:07.352Z,0.62
2022-12-12T16:30:37.234Z,0.53
2022-12-12T16:33:43.442Z,0.62
2022-12-12T16:36:16.862Z,0.69
2022-12-12T16:38:44.599Z,0.72
2022-12-12T16:41:16.990Z,0.70
2022-12-12T16:43:45.088Z,0.69
2022-12-12T16:46:25.574Z,0.77
2022-12-12T16:48:53.635Z,0.76
2022-12-12T16:51:28.584Z,0.74
2022-12-12T16:53:56.490Z,0.77
2022-12-12T16:56:24.899Z,0.78
2022-12-12T16:58:53.456Z,0.84
2022-12-12T17:01:21.141Z,0.86
2022-12-12T17:03:48.816Z,0.93
2022-12-12T17:06:16.095Z,0.88
2022-12-12T17:08:43.612Z,0.91
2022-12-12T17:11:12.835Z,0.94
2022-12-12T17:13:51.094Z,0.94
2022-12-12T17:16:22.756Z,0.92
2022-12-12T17:18:53.455Z,0.92
2022-12-12T17:21:20.735Z,0.95
2022-12-12T17:23:48.284Z,0.85
2022-12-12T17:26:15.788Z,0.88
2022-12-12T17:28:43.281Z,0.77
2022-12-12T17:31:10.554Z,0.81
2022-12-12T17:33:49.520Z,0.79
2022-12-12T17:36:18.123Z,0.72
2022-12-12T17:38:45.687Z,0.71
2022-12-12T17:41:13.495Z,0.79
2022-12-12T17:43:42.358Z,0.77
2022-12-12T17:46:17.116Z,0.81
2022-12-12T17:48:47.731Z,0.79
2022-12-12T17:51:23.408Z,0.76
2022-12-12T17:53:52.835Z,0.67
2022-12-12T17:56:25.331Z,0.77
2022-12-12T17:58:54.692Z,0.66
2022-12-12T18:01:29.249Z,0.66
2022-12-12T18:03:58.473Z,0.69
2022-12-12T18:06:27.539Z,0.77
2022-12-12T18:08:55.361Z,0.74
2022-12-12T18:11:27.458Z,0.70
2022-12-12T18:13:57.914Z,0.65
2022-12-12T18:16:25.613Z,0.68
2022-12-12T18:18:55.099Z,0.64
2022-12-12T18:21:59.683Z,0.74
2022-12-12T18:24:17.729Z,0.67
2022-12-12T18:26:45.232Z,0.79
2022-12-12T18:29:13.671Z,0.69
2022-12-12T18:31:41.235Z,0.66
2022-12-12T18:34:08.969Z,0.56
2022-12-12T18:36:36.441Z,0.60
2022-12-12T18:39:07.062Z,0.49
2022-12-12T18:41:36.834Z,0.52
2022-12-12T18:44:07.950Z,0.54
2022-12-12T18:46:42.355Z,0.60
2022-12-12T18:49:15.188Z,0.67
2022-12-12T18:51:44.699Z,0.58
2022-12-12T18:54:15.751Z,0.63
2022-12-12T18:56:45.977Z,0.63
2022-12-12T18:59:15.170Z,0.63
2022-12-12T19:01:42.723Z,0.65
2022-12-12T19:04:13.448Z,0.63
2022-12-12T19:06:43.528Z,0.49
2022-12-12T19:09:17.800Z,0.51
2022-12-12T19:11:47.206Z,0.43
2022-12-12T19:14:16.866Z,0.40
2022-12-12T19:16:45.333Z,0.37
2022-12-12T19:19:13.758Z,0.44
2022-12-12T19:21:42.835Z,0.36
2022-12-12T19:24:12.621Z,0.42
2022-12-12T19:26:43.905Z,0.44
2022-12-12T19:29:19.061Z,0.44
2022-12-12T19:31:47.382Z,0.31
2022-12-12T19:34:16.818Z,0.40
2022-12-12T19:36:45.509Z,0.28
2022-12-12T19:39:13.646Z,0.34
2022-12-12T19:41:42.095Z,0.33
2022-12-12T19:44:12.710Z,0.28
2022-12-12T19:46:43.558Z,0.34
2022-12-12T19:49:16.226Z,0.28
2022-12-12T19:51:45.747Z,0.33
2022-12-12T19:54:17.945Z,0.23
2022-12-12T19:56:46.767Z,0.17
2022-12-12T19:59:17.372Z,0.31
2022-12-12T20:01:45.921Z,0.11
2022-12-12T20:04:21.735Z,0.12
2022-12-12T20:06:50.504Z,0.10
2022-12-12T20:09:30.003Z,0.07
2022-12-12T20:12:00.664Z,0.12
2022-12-12T20:14:34.711Z,0.18
2022-12-12T20:17:05.496Z,0.18
2022-12-12T20:19:33.203Z,0.17
2022-12-12T20:22:02.117Z,0.15
2022-12-12T20:24:32.261Z,0.01
2022-12-12T20:27:00.350Z,0.04
2022-12-12T20:29:28.342Z,0.01
2022-12-12T20:31:55.728Z,-0.01
2022-12-12T20:34:25.025Z,-0.04
2022-12-12T20:36:55.154Z,-0.06
2022-12-12T20:39:25.166Z,-0.17
2022-12-12T20:41:53.846Z,-0.14
2022-12-12T20:44:24.176Z,-0.27
2022-12-12T20:46:51.837Z,-0.35
2022-12-12T20:49:24.058Z,-0.22
2022-12-12T20:51:56.497Z,-0.28
2022-12-12T20:54:27.402Z,-0.32
2022-12-12T20:56:58.448Z,-0.26
2022-12-12T20:59:26.930Z,-0.35
2022-12-12T21:01:54.466Z,-0.28
2022-12-12T21:04:22.765Z,-0.29
2022-12-12T21:06:51.639Z,-0.34
2022-12-12T21:09:25.871Z,-0.31
2022-12-12T21:11:58.703Z,-0.35
2022-12-12T21:14:30.864Z,-0.26
2022-12-12T21:16:58.233Z,-0.36
2022-12-12T21:19:25.778Z,-0.31
2022-12-12T21:21:54.310Z,-0.40
2022-12-12T21:24:22.866Z,-0.39
2022-12-12T21:26:50.731Z,-0.32
2022-12-12T21:29:18.502Z,-0.38
2022-12-12T21:31:51.611Z,-0.45
2022-12-12T21:34:23.571Z,-0.40
2022-12-12T21:36:53.968Z,-0.36
2022-12-12T21:39:26.741Z,-0.40
2022-12-12T21:41:55.330Z,-0.52
2022-12-12T21:44:22.983Z,-0.55
2022-12-12T21:46:50.504Z,-0.43
2022-12-12T21:49:28.036Z,-0.51
2022-12-12T21:52:02.701Z,-0.51
2022-12-12T21:54:30.938Z,-0.49
2022-12-12T21:57:02.705Z,-0.53
2022-12-12T21:59:30.702Z,-0.57
2022-12-12T22:02:00.521Z,-0.60
2022-12-12T22:04:28.662Z,-0.60
2022-12-12T22:06:57.405Z,-0.68
2022-12-12T22:09:26.458Z,-0.75
2022-12-12T22:12:03.240Z,-0.79
2022-12-12T22:14:32.958Z,-0.82
2022-12-12T22:17:00.971Z,-0.80
2022-12-12T22:19:28.571Z,-0.92
2022-12-12T22:21:55.812Z,-0.94
2022-12-12T22:24:23.378Z,-1.00
2022-12-12T22:26:50.848Z,-1.03
2022-12-12T22:29:20.276Z,-1.00
2022-12-12T22:31:50.302Z,-0.98
2022-12-12T22:34:23.481Z,-0.94
2022-12-12T22:36:52.401Z,-0.89
2022-12-12T22:39:24.643Z,-1.00
2022-12-12T22:41:52.484Z,-1.02
2022-12-12T22:44:22.884Z,-1.01
2022-12-12T22:46:52.981Z,-1.02
2022-12-12T22:49:25.895Z,-0.96
2022-12-12T22:51:56.370Z,-0.93
2022-12-12T22:54:25.130Z,-1.10
2022-12-12T22:56:52.346Z,-0.94
2022-12-12T22:59:19.962Z,-1.00
2022-12-12T23:01:47.171Z,-1.02
2022-12-12T23:04:15.354Z,-1.15
2022-12-12T23:06:44.935Z,-1.18
2022-12-12T23:09:18.311Z,-1.03
2022-12-12T23:11:46.349Z,-1.05
2022-12-12T23:14:19.518Z,-1.04
2022-12-12T23:16:47.430Z,-0.96
2022-12-12T23:19:20.083Z,-1.06
2022-12-12T23:21:47.939Z,-1.11
2022-12-12T23:24:15.772Z,-1.16
2022-12-12T23:26:43.491Z,-1.17
2022-12-12T23:29:16.952Z,-1.07
2022-12-12T23:31:44.929Z,-1.10
2022-12-12T23:34:30.905Z,-1.05
2022-12-12T23:36:58.741Z,-0.99
2022-12-12T23:39:27.178Z,-1.15
2022-12-12T23:41:55.045Z,-1.20
2022-12-12T23:44:24.165Z,-1.19
2022-12-12T23:46:51.838Z,-1.28
2022-12-12T23:49:25.878Z,-1.24
2022-12-12T23:51:59.411Z,-1.26
2022-12-12T23:54:32.350Z,-1.19
2022-12-12T23:57:00.249Z,-1.28
2022-12-12T23:59:28.483Z,-1.24
